createdAt,value
2019-06-10T00:01:42.743Z,4.40
2019-06-10T00:04:12.715Z,4.20
2019-06-10T00:06:42.869Z,6.83
2019-06-10T00:09:12.550Z,8.40
2019-06-10T00:11:42.248Z,6.93
2019-06-10T00:14:11.979Z,2.73
2019-06-10T00:16:41.766Z,4.10
2019-06-10T00:19:12.914Z,2.90
2019-06-10T00:21:43.691Z,5.50
2019-06-10T00:24:13.488Z,3.40
2019-06-10T00:26:43.268Z,5.20
2019-06-10T00:29:12.996Z,4.13
2019-06-10T00:31:42.718Z,4.87
2019-06-10T00:34:12.640Z,6.03
2019-06-10T00:36:42.447Z,3.30
2019-06-10T00:39:13.460Z,3.13
2019-06-10T00:41:43.598Z,2.83
2019-06-10T00:44:13.458Z,2.30
2019-06-10T00:46:43.219Z,3.27
2019-06-10T00:49:14.694Z,7.23
2019-06-10T00:51:44.266Z,5.53
2019-06-10T00:54:15.787Z,9.17
2019-06-10T00:56:45.338Z,3.97
2019-06-10T00:59:15.494Z,4.23
2019-06-10T01:01:46.617Z,3.67
2019-06-10T01:04:16.654Z,4.87
2019-06-10T01:06:46.454Z,5.27
2019-06-10T01:09:16.120Z,2.57
2019-06-10T01:11:45.816Z,5.27
2019-06-10T01:14:15.652Z,7.60
2019-06-10T01:16:45.398Z,2.40
2019-06-10T01:19:15.862Z,3.80
2019-06-10T01:21:45.801Z,3.00
2019-06-10T01:24:15.490Z,6.83
2019-06-10T01:26:45.164Z,4.00
2019-06-10T01:29:15.549Z,3.27
2019-06-10T01:31:46.502Z,3.37
2019-06-10T01:34:16.169Z,3.67
2019-06-10T01:36:45.845Z,21.53
2019-06-10T01:39:16.805Z,4.30
2019-06-10T01:41:46.915Z,2.83
2019-06-10T01:44:17.707Z,6.23
2019-06-10T01:46:47.586Z,6.30
2019-06-10T01:49:18.183Z,2.80
2019-06-10T01:51:48.016Z,6.90
2019-06-10T01:54:18.464Z,8.23
2019-06-10T01:56:50.850Z,5.07
2019-06-10T01:59:22.058Z,9.20
2019-06-10T02:01:57.007Z,2.40
2019-06-10T02:04:26.705Z,3.80
2019-06-10T02:06:56.451Z,7.37
2019-06-10T02:09:27.704Z,4.30
2019-06-10T02:11:57.385Z,5.77
2019-06-10T02:14:27.073Z,2.90
2019-06-10T02:16:56.791Z,3.20
2019-06-10T02:19:26.461Z,5.37
2019-06-10T02:21:56.150Z,3.43
2019-06-10T02:24:25.861Z,7.20
2019-06-10T02:26:55.572Z,4.50
2019-06-10T02:29:25.245Z,5.07
2019-06-10T02:31:54.953Z,4.03
2019-06-10T02:34:27.328Z,5.00
2019-06-10T02:36:56.059Z,5.30
2019-06-10T02:39:33.440Z,5.43
2019-06-10T02:42:04.564Z,15.20
2019-06-10T02:44:37.481Z,3.60
2019-06-10T02:47:04.913Z,3.60
2019-06-10T02:49:51.658Z,5.57
2019-06-10T02:52:19.929Z,5.27
2019-06-10T02:54:53.123Z,4.20
2019-06-10T02:57:29.271Z,9.37
2019-06-10T02:59:54.451Z,5.20
2019-06-10T03:02:31.211Z,6.07
2019-06-10T03:04:55.597Z,3.70
2019-06-10T03:07:28.833Z,5.10
2019-06-10T03:09:56.740Z,8.70
2019-06-10T03:12:26.445Z,5.37
2019-06-10T03:14:56.147Z,4.33
2019-06-10T03:17:28.135Z,3.70
2019-06-10T03:19:57.873Z,5.60
2019-06-10T03:22:28.452Z,4.47
2019-06-10T03:24:58.253Z,6.97
2019-06-10T03:27:28.032Z,8.03
2019-06-10T03:29:57.840Z,4.00
2019-06-10T03:32:33.333Z,8.13
2019-06-10T03:34:58.908Z,7.47
2019-06-10T03:37:28.588Z,10.17
2019-06-10T03:39:59.247Z,9.70
2019-06-10T03:42:28.902Z,18.40
2019-06-10T03:44:58.607Z,19.23
2019-06-10T03:47:28.801Z,16.83
2019-06-10T03:49:58.683Z,18.30
2019-06-10T03:52:28.617Z,3.63
2019-06-10T03:54:58.475Z,7.43
2019-06-10T03:57:28.661Z,5.70
2019-06-10T03:59:58.618Z,20.33
2019-06-10T04:02:28.542Z,7.37
2019-06-10T04:04:58.346Z,10.07
2019-06-10T04:07:30.986Z,8.90
2019-06-10T04:09:59.414Z,16.40
2019-06-10T04:12:29.175Z,6.37
2019-06-10T04:14:59.037Z,9.30
2019-06-10T04:17:28.885Z,8.00
2019-06-10T04:20:09.417Z,11.00
2019-06-10T04:22:32.974Z,6.60
2019-06-10T04:25:03.045Z,8.53
2019-06-10T04:27:33.024Z,7.43
2019-06-10T04:30:03.364Z,8.80
2019-06-10T04:32:33.227Z,7.83
2019-06-10T04:35:02.966Z,8.00
2019-06-10T04:37:35.458Z,9.50
2019-06-10T04:40:05.775Z,10.00
2019-06-10T04:42:35.608Z,7.30
2019-06-10T04:45:06.080Z,8.50
2019-06-10T04:47:36.818Z,9.13
2019-06-10T04:50:21.834Z,6.63
2019-06-10T04:52:43.157Z,10.43
2019-06-10T04:55:13.507Z,6.10
2019-06-10T04:57:43.241Z,10.33
2019-06-10T05:00:14.835Z,10.00
2019-06-10T05:02:44.628Z,7.90
2019-06-10T05:05:14.479Z,12.40
2019-06-10T05:07:44.157Z,6.80
2019-06-10T05:10:14.022Z,6.17
2019-06-10T05:12:43.715Z,11.63
2019-06-10T05:15:13.720Z,9.83
2019-06-10T05:17:43.917Z,6.43
2019-06-10T05:20:14.314Z,5.60
2019-06-10T05:22:44.025Z,10.17
2019-06-10T05:25:13.767Z,5.07
2019-06-10T05:27:43.544Z,7.10
2019-06-10T05:30:14.052Z,8.97
2019-06-10T05:32:43.739Z,6.57
2019-06-10T05:35:13.476Z,10.30
2019-06-10T05:37:43.159Z,9.20
2019-06-10T05:40:13.188Z,11.70
2019-06-10T05:42:44.164Z,13.83
2019-06-10T05:45:14.183Z,7.53
2019-06-10T05:47:43.891Z,9.57
2019-06-10T05:50:15.294Z,5.33
2019-06-10T05:52:44.987Z,8.70
2019-06-10T05:55:14.689Z,7.00
2019-06-10T05:57:44.420Z,6.17
2019-06-10T06:00:15.105Z,4.37
2019-06-10T06:02:45.162Z,7.53
2019-06-10T06:05:15.283Z,9.07
2019-06-10T06:07:45.121Z,7.40
2019-06-10T06:10:16.546Z,8.30
2019-06-10T06:12:46.415Z,10.20
2019-06-10T06:15:16.653Z,7.73
2019-06-10T06:17:46.349Z,6.23
2019-06-10T06:20:16.674Z,7.80
2019-06-10T06:22:46.467Z,7.37
2019-06-10T06:25:16.547Z,9.63
2019-06-10T06:27:46.393Z,6.43
2019-06-10T06:30:18.943Z,7.53
2019-06-10T06:32:48.884Z,7.43
2019-06-10T06:35:18.693Z,10.53
2019-06-10T06:37:48.419Z,5.37
2019-06-10T06:40:19.255Z,6.10
2019-06-10T06:42:49.519Z,4.00
2019-06-10T06:45:22.076Z,5.43
2019-06-10T06:47:52.649Z,5.50
2019-06-10T06:50:25.561Z,6.47
2019-06-10T06:53:19.724Z,5.30
2019-06-10T06:55:26.586Z,7.33
2019-06-10T06:57:56.443Z,6.40
2019-06-10T07:00:48.986Z,10.30
2019-06-10T07:03:06.185Z,13.60
2019-06-10T07:05:37.553Z,8.00
2019-06-10T07:08:07.938Z,5.80
2019-06-10T07:10:38.842Z,6.87
2019-06-10T07:13:08.875Z,11.60
2019-06-10T07:15:46.531Z,5.70
2019-06-10T07:18:13.107Z,5.07
2019-06-10T07:20:45.609Z,6.50
2019-06-10T07:23:14.631Z,4.70
2019-06-10T07:25:47.160Z,8.23
2019-06-10T07:28:15.850Z,4.53
2019-06-10T07:30:51.680Z,7.70
2019-06-10T07:33:18.051Z,5.60
2019-06-10T07:35:47.776Z,5.30
2019-06-10T07:38:17.477Z,8.03
2019-06-10T07:40:47.247Z,6.27
2019-06-10T07:43:17.070Z,4.20
2019-06-10T07:45:48.068Z,6.73
2019-06-10T07:48:18.147Z,9.33
2019-06-10T07:50:47.931Z,5.73
2019-06-10T07:53:17.706Z,4.50
2019-06-10T07:55:47.393Z,5.53
2019-06-10T07:58:17.228Z,5.70
2019-06-10T08:00:48.522Z,4.20
2019-06-10T08:03:18.548Z,4.23
2019-06-10T08:05:48.411Z,4.27
2019-06-10T08:08:18.241Z,9.80
2019-06-10T08:10:48.253Z,6.93
2019-06-10T08:13:18.137Z,6.40
2019-06-10T08:15:48.401Z,10.63
2019-06-10T08:18:18.443Z,7.40
2019-06-10T08:20:48.427Z,9.37
2019-06-10T08:23:19.183Z,4.87
2019-06-10T08:25:54.684Z,4.40
2019-06-10T08:28:23.046Z,6.30
2019-06-10T08:30:53.269Z,11.17
2019-06-10T08:33:23.302Z,4.80
2019-06-10T08:35:59.357Z,11.93
2019-06-10T08:38:24.456Z,7.93
2019-06-10T08:40:54.145Z,9.97
2019-06-10T08:43:23.805Z,5.57
2019-06-10T08:45:53.520Z,4.50
2019-06-10T08:48:23.311Z,7.23
2019-06-10T08:50:53.635Z,5.20
2019-06-10T08:53:23.359Z,7.87
2019-06-10T08:55:53.795Z,17.37
2019-06-10T08:58:24.639Z,4.30
2019-06-10T09:00:54.511Z,5.20
2019-06-10T09:03:24.306Z,8.37
2019-06-10T09:05:58.170Z,6.33
2019-06-10T09:08:26.142Z,5.87
2019-06-10T09:10:59.351Z,6.40
2019-06-10T09:13:29.190Z,6.30
2019-06-10T09:16:11.698Z,8.50
2019-06-10T09:18:33.417Z,4.90
2019-06-10T09:21:02.422Z,52.87
2019-06-10T09:23:33.090Z,11.37
2019-06-10T09:26:03.697Z,9.80
2019-06-10T09:28:33.706Z,8.23
2019-06-10T09:31:05.024Z,5.30
2019-06-10T09:33:35.056Z,6.20
2019-06-10T09:36:05.156Z,5.40
2019-06-10T09:38:34.830Z,7.33
2019-06-10T09:41:06.176Z,6.80
2019-06-10T09:43:36.260Z,10.40
2019-06-10T09:46:06.148Z,7.67
2019-06-10T09:48:36.071Z,7.60
2019-06-10T09:51:05.894Z,6.43
2019-06-10T09:53:42.920Z,13.73
2019-06-10T09:56:07.117Z,13.80
2019-06-10T09:58:36.948Z,12.07
2019-06-10T10:01:06.902Z,6.27
2019-06-10T10:03:36.969Z,6.83
2019-06-10T10:06:14.583Z,10.30
2019-06-10T10:08:38.706Z,8.20
2019-06-10T10:11:08.471Z,10.53
2019-06-10T10:13:38.235Z,6.13
2019-06-10T10:16:07.972Z,10.00
2019-06-10T10:18:37.733Z,6.40
2019-06-10T10:21:07.596Z,6.00
2019-06-10T10:23:51.197Z,9.07
2019-06-10T10:26:08.730Z,8.00
2019-06-10T10:28:38.491Z,11.20
2019-06-10T10:31:08.207Z,13.00
2019-06-10T10:33:39.508Z,12.77
2019-06-10T10:36:09.226Z,10.63
2019-06-10T10:38:38.942Z,6.57
2019-06-10T10:41:08.678Z,5.50
2019-06-10T10:43:38.445Z,6.77
2019-06-10T10:46:09.354Z,9.27
2019-06-10T10:48:39.252Z,6.33
2019-06-10T10:51:14.975Z,8.23
2019-06-10T10:53:48.568Z,8.17
2019-06-10T10:56:16.068Z,11.73
2019-06-10T10:58:47.344Z,8.23
2019-06-10T11:01:17.282Z,10.20
2019-06-10T11:03:48.236Z,5.17
2019-06-10T11:06:19.448Z,7.70
2019-06-10T11:08:49.983Z,8.03
2019-06-10T11:11:22.844Z,7.93
2019-06-10T11:13:56.572Z,11.50
2019-06-10T11:16:24.212Z,10.50
2019-06-10T11:18:56.223Z,6.80
2019-06-10T11:21:25.306Z,12.87
2019-06-10T11:24:00.847Z,9.70
2019-06-10T11:26:27.026Z,6.53
2019-06-10T11:28:57.972Z,13.37
2019-06-10T11:31:27.900Z,6.13
2019-06-10T11:34:09.952Z,8.57
2019-06-10T11:36:42.777Z,7.03
2019-06-10T11:39:13.531Z,10.60
2019-06-10T11:41:43.792Z,8.23
2019-06-10T11:44:17.062Z,11.67
2019-06-10T11:46:54.870Z,8.33
2019-06-10T11:49:24.625Z,6.37
2019-06-10T11:51:56.481Z,16.27
2019-06-10T11:54:25.777Z,9.33
2019-06-10T11:56:57.984Z,9.37
2019-06-10T11:59:27.030Z,6.80
2019-06-10T12:01:59.934Z,9.33
2019-06-10T12:04:28.257Z,10.60
2019-06-10T12:06:59.211Z,9.03
2019-06-10T12:09:28.921Z,9.77
2019-06-10T12:12:02.381Z,10.80
2019-06-10T12:14:33.139Z,8.70
2019-06-10T12:17:41.124Z,8.37
2019-06-10T12:19:38.552Z,13.10
2019-06-10T12:22:08.513Z,8.47
2019-06-10T12:24:38.181Z,13.20
2019-06-10T12:27:08.665Z,9.97
2019-06-10T12:29:38.355Z,6.80
2019-06-10T12:32:08.057Z,14.20
2019-06-10T12:34:37.830Z,7.77
2019-06-10T12:37:11.099Z,7.07
2019-06-10T12:39:42.229Z,7.60
2019-06-10T12:42:14.143Z,7.70
2019-06-10T12:44:43.131Z,7.93
2019-06-10T12:47:12.848Z,8.83
2019-06-10T12:49:43.685Z,7.83
2019-06-10T12:52:13.376Z,10.00
2019-06-10T12:54:43.469Z,7.63
2019-06-10T12:57:16.239Z,6.13
2019-06-10T12:59:44.906Z,8.50
2019-06-10T13:02:22.588Z,10.23
2019-06-10T13:04:47.142Z,7.23
2019-06-10T13:07:18.818Z,8.50
2019-06-10T13:09:48.765Z,10.20
2019-06-10T13:12:18.571Z,9.40
2019-06-10T13:14:48.365Z,10.13
2019-06-10T13:17:18.598Z,9.73
2019-06-10T13:19:49.200Z,8.70
2019-06-10T13:22:23.072Z,9.60
2019-06-10T13:24:53.620Z,8.40
2019-06-10T13:27:23.543Z,9.60
2019-06-10T13:29:53.515Z,12.93
2019-06-10T13:32:25.269Z,8.40
2019-06-10T13:35:03.651Z,8.87
2019-06-10T13:37:33.310Z,9.37
2019-06-10T13:40:06.721Z,13.80
2019-06-10T13:42:36.884Z,11.00
2019-06-10T13:45:08.557Z,9.70
2019-06-10T13:47:39.617Z,12.43
2019-06-10T13:50:11.459Z,10.00
2019-06-10T13:52:42.622Z,8.77
2019-06-10T13:55:14.423Z,11.37
2019-06-10T13:57:44.750Z,13.60
2019-06-10T14:00:16.287Z,11.00
2019-06-10T14:02:46.035Z,10.00
2019-06-10T14:05:18.286Z,10.00
2019-06-10T14:07:47.563Z,11.00
2019-06-10T14:10:18.385Z,11.47
2019-06-10T14:12:49.179Z,8.07
2019-06-10T14:15:19.330Z,10.67
2019-06-10T14:17:49.071Z,11.50
2019-06-10T14:20:19.002Z,9.70
2019-06-10T14:22:48.757Z,10.50
2019-06-10T14:25:18.618Z,10.33
2019-06-10T14:27:48.719Z,11.07
2019-06-10T14:30:18.642Z,11.97
2019-06-10T14:32:48.306Z,11.23
2019-06-10T14:35:18.210Z,10.20
2019-06-10T14:37:47.889Z,9.00
2019-06-10T14:40:20.942Z,14.60
2019-06-10T14:42:52.361Z,12.37
2019-06-10T14:45:23.166Z,13.47
2019-06-10T14:47:54.811Z,9.70
2019-06-10T14:50:25.593Z,13.10
2019-06-10T14:52:55.321Z,10.33
2019-06-10T14:55:25.076Z,7.97
2019-06-10T14:57:54.808Z,13.63
2019-06-10T15:00:24.708Z,10.30
2019-06-10T15:02:54.438Z,10.63
2019-06-10T15:05:25.138Z,12.53
2019-06-10T15:07:54.845Z,10.57
2019-06-10T15:10:24.538Z,14.03
2019-06-10T15:12:54.344Z,12.93
2019-06-10T15:15:24.079Z,9.70
2019-06-10T15:17:53.972Z,10.17
2019-06-10T15:20:26.384Z,10.40
2019-06-10T15:22:56.206Z,9.50
2019-06-10T15:25:28.298Z,10.40
2019-06-10T15:27:57.538Z,13.47
2019-06-10T15:30:31.212Z,9.60
2019-06-10T15:32:58.962Z,8.40
2019-06-10T15:35:28.815Z,8.73
2019-06-10T15:38:04.186Z,10.93
2019-06-10T15:40:33.064Z,13.50
2019-06-10T15:43:06.193Z,12.00
2019-06-10T15:45:34.838Z,11.67
2019-06-10T15:48:04.662Z,9.47
2019-06-10T15:50:34.508Z,11.33
2019-06-10T15:53:04.212Z,14.23
2019-06-10T15:56:08.469Z,10.20
2019-06-10T15:58:07.608Z,9.17
2019-06-10T16:00:37.407Z,13.50
2019-06-10T16:03:07.179Z,9.00
2019-06-10T16:05:38.493Z,12.90
2019-06-10T16:08:08.170Z,9.70
2019-06-10T16:10:37.837Z,9.00
2019-06-10T16:13:07.649Z,9.13
2019-06-10T16:15:37.302Z,9.80
2019-06-10T16:18:07.104Z,9.23
2019-06-10T16:20:36.822Z,11.13
2019-06-10T16:23:06.536Z,10.23
2019-06-10T16:25:36.190Z,9.10
2019-06-10T16:28:05.890Z,12.00
2019-06-10T16:30:35.750Z,8.93
2019-06-10T16:33:05.730Z,13.77
2019-06-10T16:35:36.444Z,11.70
2019-06-10T16:38:06.714Z,11.73
2019-06-10T16:40:36.536Z,12.10
2019-06-10T16:43:06.335Z,14.63
2019-06-10T16:45:36.192Z,9.77
2019-06-10T16:48:05.999Z,11.20
2019-06-10T16:50:35.713Z,8.87
2019-06-10T16:53:05.411Z,12.40
2019-06-10T16:55:35.055Z,11.17
2019-06-10T16:58:08.141Z,9.97
2019-06-10T17:00:36.269Z,14.87
2019-06-10T17:03:05.998Z,9.83
2019-06-10T17:05:35.820Z,8.43
2019-06-10T17:08:05.674Z,11.10
2019-06-10T17:10:35.370Z,14.50
2019-06-10T17:13:07.295Z,18.13
2019-06-10T17:15:36.964Z,9.53
2019-06-10T17:18:06.690Z,12.93
2019-06-10T17:20:36.458Z,9.03
2019-06-10T17:23:28.920Z,11.40
2019-06-10T17:25:57.152Z,8.97
2019-06-10T17:28:31.767Z,11.03
2019-06-10T17:30:59.674Z,11.70
2019-06-10T17:33:30.402Z,13.07
2019-06-10T17:36:03.451Z,9.90
2019-06-10T17:38:32.688Z,13.03
2019-06-10T17:41:03.064Z,11.43
2019-06-10T17:43:34.446Z,10.20
2019-06-10T17:46:04.308Z,11.97
2019-06-10T17:48:35.121Z,9.80
2019-06-10T17:51:04.927Z,13.77
2019-06-10T17:53:35.116Z,13.67
2019-06-10T17:56:05.095Z,14.00
2019-06-10T17:58:49.980Z,10.40
2019-06-10T18:01:06.543Z,11.77
2019-06-10T18:03:39.759Z,10.50
2019-06-10T18:06:07.685Z,9.33
2019-06-10T18:08:40.583Z,12.90
2019-06-10T18:11:12.512Z,11.13
2019-06-10T18:13:42.903Z,11.20
2019-06-10T18:16:14.381Z,12.53
2019-06-10T18:18:45.159Z,13.57
2019-06-10T18:21:14.991Z,11.77
2019-06-10T18:23:44.788Z,11.07
2019-06-10T18:26:16.889Z,9.47
2019-06-10T18:29:00.438Z,10.60
2019-06-10T18:31:18.799Z,13.80
2019-06-10T18:33:48.633Z,14.63
2019-06-10T18:36:18.514Z,11.50
2019-06-10T18:38:49.270Z,8.63
2019-06-10T18:41:19.023Z,13.90
2019-06-10T18:43:48.727Z,12.50
2019-06-10T18:46:19.038Z,9.27
2019-06-10T18:48:48.947Z,12.37
2019-06-10T18:51:19.155Z,10.40
2019-06-10T18:53:49.140Z,10.07
2019-06-10T18:56:19.642Z,21.00
2019-06-10T18:58:49.646Z,10.40
2019-06-10T19:01:22.639Z,12.17
2019-06-10T19:03:52.978Z,9.03
2019-06-10T19:06:23.514Z,13.63
2019-06-10T19:08:53.269Z,10.83
2019-06-10T19:11:23.153Z,10.03
2019-06-10T19:13:53.354Z,14.23
2019-06-10T19:16:32.570Z,12.77
2019-06-10T19:19:02.639Z,13.50
2019-06-10T19:21:32.800Z,13.00
2019-06-10T19:24:03.229Z,10.03
2019-06-10T19:26:34.575Z,13.70
2019-06-10T19:29:04.668Z,12.33
2019-06-10T19:31:37.549Z,13.70
2019-06-10T19:34:05.942Z,13.17
2019-06-10T19:36:37.996Z,16.83
2019-06-10T19:39:09.136Z,11.93
2019-06-10T19:41:44.152Z,15.00
2019-06-10T19:44:13.035Z,13.03
2019-06-10T19:46:43.163Z,14.17
2019-06-10T19:49:13.494Z,16.97
2019-06-10T19:51:46.794Z,13.43
2019-06-10T19:54:16.209Z,17.13
2019-06-10T19:56:46.216Z,18.77
2019-06-10T19:59:19.001Z,16.57
2019-06-10T20:01:49.071Z,14.07
2019-06-10T20:04:19.003Z,12.47
2019-06-10T20:06:50.784Z,14.73
2019-06-10T20:09:22.480Z,14.43
2019-06-10T20:11:51.960Z,15.40
2019-06-10T20:14:21.745Z,20.33
2019-06-10T20:16:52.632Z,17.87
2019-06-10T20:19:23.243Z,18.70
2019-06-10T20:21:53.039Z,16.63
2019-06-10T20:24:22.706Z,16.43
2019-06-10T20:26:53.000Z,15.07
2019-06-10T20:29:23.033Z,17.70
2019-06-10T20:31:52.743Z,12.83
2019-06-10T20:34:25.732Z,14.87
2019-06-10T20:36:55.085Z,13.73
2019-06-10T20:39:25.090Z,14.27
2019-06-10T20:41:56.621Z,15.27
2019-06-10T20:44:26.291Z,13.87
2019-06-10T20:46:56.237Z,17.53
2019-06-10T20:49:27.080Z,18.40
2019-06-10T20:52:09.825Z,15.83
2019-06-10T20:54:32.205Z,16.67
2019-06-10T20:56:59.839Z,15.97
2019-06-10T20:59:29.636Z,15.67
2019-06-10T21:01:59.315Z,14.83
2019-06-10T21:04:29.050Z,16.87
2019-06-10T21:07:02.533Z,20.93
2019-06-10T21:09:34.753Z,19.60
2019-06-10T21:12:04.690Z,14.50
2019-06-10T21:14:34.464Z,18.00
2019-06-10T21:17:04.248Z,20.97
2019-06-10T21:19:33.932Z,20.43
2019-06-10T21:22:03.731Z,15.43
2019-06-10T21:24:35.233Z,18.17
2019-06-10T21:27:05.059Z,16.77
2019-06-10T21:29:34.813Z,18.77
2019-06-10T21:32:06.483Z,20.30
2019-06-10T21:34:35.994Z,22.07
2019-06-10T21:37:15.636Z,20.70
2019-06-10T21:39:47.767Z,22.30
2019-06-10T21:42:17.253Z,24.30
2019-06-10T21:44:47.986Z,33.57
2019-06-10T21:47:22.788Z,25.73
2019-06-10T21:49:56.320Z,20.33
2019-06-10T21:52:43.162Z,22.00
2019-06-10T21:55:06.044Z,20.97
2019-06-10T21:57:35.879Z,20.70
2019-06-10T22:00:11.332Z,23.23
2019-06-10T22:02:43.196Z,26.07
2019-06-10T22:05:14.859Z,19.90
2019-06-10T22:07:45.443Z,22.93
2019-06-10T22:10:26.804Z,21.77
2019-06-10T22:13:14.547Z,22.17
2019-06-10T22:15:44.327Z,25.73
2019-06-10T22:18:15.414Z,25.97
2019-06-10T22:20:46.618Z,23.97
2019-06-10T22:23:16.725Z,25.30
2019-06-10T22:25:46.796Z,23.93
2019-06-10T22:28:16.631Z,28.50
2019-06-10T22:30:47.151Z,86.33
2019-06-10T22:33:16.974Z,21.63
2019-06-10T22:35:55.062Z,24.60
2019-06-10T22:38:24.025Z,24.73
2019-06-10T22:40:55.449Z,24.27
2019-06-10T22:43:25.110Z,25.27
2019-06-10T22:46:03.752Z,34.20
2019-06-10T22:48:33.376Z,24.73
2019-06-10T22:51:03.352Z,26.00
2019-06-10T22:53:34.759Z,29.33
2019-06-10T22:56:04.507Z,29.53
2019-06-10T22:58:34.226Z,21.83
2019-06-10T23:01:04.451Z,23.53
2019-06-10T23:03:34.281Z,21.53
2019-06-10T23:06:04.075Z,30.23
2019-06-10T23:08:34.012Z,25.30
2019-06-10T23:11:03.792Z,24.70
2019-06-10T23:13:33.615Z,21.40
2019-06-10T23:16:03.388Z,25.07
2019-06-10T23:18:33.064Z,22.60
2019-06-10T23:21:04.439Z,25.07
2019-06-10T23:23:36.242Z,24.10
2019-06-10T23:26:05.927Z,22.20
2019-06-10T23:28:35.598Z,24.40
2019-06-10T23:31:05.624Z,20.80
2019-06-10T23:33:35.647Z,22.63
2019-06-10T23:36:05.396Z,20.10
2019-06-10T23:38:35.119Z,23.10
2019-06-10T23:41:05.045Z,20.70
2019-06-10T23:43:34.728Z,23.03
2019-06-10T23:46:05.490Z,25.80
2019-06-10T23:48:35.181Z,24.10
2019-06-10T23:51:05.247Z,28.33
2019-06-10T23:53:35.171Z,25.97
2019-06-10T23:56:05.226Z,26.67
2019-06-10T23:58:35.189Z,18.50
